sensor_id;sensor_type;location;lat;lon;timestamp;temperature;humidity
55091;DHT22;40985;53.180;5.800;2022-12-20T00:01:13;8.50;99.90
55091;DHT22;40985;53.180;5.800;2022-12-20T00:03:40;8.50;99.90
55091;DHT22;40985;53.180;5.800;2022-12-20T00:06:06;8.50;99.90
55091;DHT22;40985;53.180;5.800;2022-12-20T00:08:33;8.50;99.90
55091;DHT22;40985;53.180;5.800;2022-12-20T00:11:00;8.50;99.90
55091;DHT22;40985;53.180;5.800;2022-12-20T00:13:26;8.50;99.90
55091;DHT22;40985;53.180;5.800;2022-12-20T00:16:14;8.50;99.90
55091;DHT22;40985;53.180;5.800;2022-12-20T00:18:41;8.50;99.90
55091;DHT22;40985;53.180;5.800;2022-12-20T00:21:09;8.50;99.90
55091;DHT22;40985;53.180;5.800;2022-12-20T00:23:36;8.50;99.90
55091;DHT22;40985;53.180;5.800;2022-12-20T00:26:13;8.50;99.90
55091;DHT22;40985;53.180;5.800;2022-12-20T00:28:40;8.50;99.90
55091;DHT22;40985;53.180;5.800;2022-12-20T00:31:07;8.50;99.90
55091;DHT22;40985;53.180;5.800;2022-12-20T00:33:35;8.50;99.90
55091;DHT22;40985;53.180;5.800;2022-12-20T00:36:01;8.50;99.90
55091;DHT22;40985;53.180;5.800;2022-12-20T00:38:27;8.50;99.90
55091;DHT22;40985;53.180;5.800;2022-12-20T00:41:03;8.60;99.90
55091;DHT22;40985;53.180;5.800;2022-12-20T00:43:30;8.60;99.90
55091;DHT22;40985;53.180;5.800;2022-12-20T00:45:56;8.50;99.90
55091;DHT22;40985;53.180;5.800;2022-12-20T00:48:22;8.60;99.90
55091;DHT22;40985;53.180;5.800;2022-12-20T00:50:48;8.60;99.90
55091;DHT22;40985;53.180;5.800;2022-12-20T00:53:13;8.60;99.90
55091;DHT22;40985;53.180;5.800;2022-12-20T00:55:43;8.60;99.90
55091;DHT22;40985;53.180;5.800;2022-12-20T00:58:09;8.60;99.90
55091;DHT22;40985;53.180;5.800;2022-12-20T01:00:36;8.60;99.90
55091;DHT22;40985;53.180;5.800;2022-12-20T01:03:01;8.70;99.90
55091;DHT22;40985;53.180;5.800;2022-12-20T01:05:27;8.70;99.90
55091;DHT22;40985;53.180;5.800;2022-12-20T01:07:53;8.60;99.90
55091;DHT22;40985;53.180;5.800;2022-12-20T01:10:18;8.70;99.90
55091;DHT22;40985;53.180;5.800;2022-12-20T01:12:44;8.70;99.90
55091;DHT22;40985;53.180;5.800;2022-12-20T01:15:11;8.70;99.90
55091;DHT22;40985;53.180;5.800;2022-12-20T01:17:36;8.70;99.90
55091;DHT22;40985;53.180;5.800;2022-12-20T01:20:03;8.70;99.90
55091;DHT22;40985;53.180;5.800;2022-12-20T01:22:29;8.70;99.90
55091;DHT22;40985;53.180;5.800;2022-12-20T01:24:54;8.60;99.90
55091;DHT22;40985;53.180;5.800;2022-12-20T01:27:20;8.70;99.90
55091;DHT22;40985;53.180;5.800;2022-12-20T01:29:46;8.70;99.90
55091;DHT22;40985;53.180;5.800;2022-12-20T01:32:11;8.70;99.90
55091;DHT22;40985;53.180;5.800;2022-12-20T01:34:37;8.70;99.90
55091;DHT22;40985;53.180;5.800;2022-12-20T01:37:03;8.70;99.90
55091;DHT22;40985;53.180;5.800;2022-12-20T01:39:28;8.70;99.90
55091;DHT22;40985;53.180;5.800;2022-12-20T01:41:54;8.70;99.90
55091;DHT22;40985;53.180;5.800;2022-12-20T01:46:47;8.80;99.90
55091;DHT22;40985;53.180;5.800;2022-12-20T01:52:09;8.80;99.90
55091;DHT22;40985;53.180;5.800;2022-12-20T01:54:37;8.80;99.90
55091;DHT22;40985;53.180;5.800;2022-12-20T01:57:10;8.80;99.90
55091;DHT22;40985;53.180;5.800;2022-12-20T01:59:39;8.80;99.90
55091;DHT22;40985;53.180;5.800;2022-12-20T02:02:10;8.80;99.90
55091;DHT22;40985;53.180;5.800;2022-12-20T02:04:36;8.80;99.90
55091;DHT22;40985;53.180;5.800;2022-12-20T02:07:02;8.80;99.90
55091;DHT22;40985;53.180;5.800;2022-12-20T02:09:30;8.70;99.90
55091;DHT22;40985;53.180;5.800;2022-12-20T02:12:03;8.70;99.90
55091;DHT22;40985;53.180;5.800;2022-12-20T02:28:02;8.60;99.90
55091;DHT22;40985;53.180;5.800;2022-12-20T02:30:36;8.60;99.90
55091;DHT22;40985;53.180;5.800;2022-12-20T02:33:06;8.50;99.90
55091;DHT22;40985;53.180;5.800;2022-12-20T02:35:35;8.60;99.90
55091;DHT22;40985;53.180;5.800;2022-12-20T02:40:46;8.50;99.90
55091;DHT22;40985;53.180;5.800;2022-12-20T02:43:12;8.50;99.90
55091;DHT22;40985;53.180;5.800;2022-12-20T02:45:58;8.40;99.90
55091;DHT22;40985;53.180;5.800;2022-12-20T02:48:27;8.30;99.90
55091;DHT22;40985;53.180;5.800;2022-12-20T02:50:56;8.30;99.90
55091;DHT22;40985;53.180;5.800;2022-12-20T02:53:23;8.30;99.90
55091;DHT22;40985;53.180;5.800;2022-12-20T03:01:37;8.30;99.90
55091;DHT22;40985;53.180;5.800;2022-12-20T03:04:04;8.40;99.90
55091;DHT22;40985;53.180;5.800;2022-12-20T03:06:31;8.40;99.90
55091;DHT22;40985;53.180;5.800;2022-12-20T03:08:56;8.40;99.90
55091;DHT22;40985;53.180;5.800;2022-12-20T03:11:22;8.40;99.90
55091;DHT22;40985;53.180;5.800;2022-12-20T03:13:48;8.40;99.90
55091;DHT22;40985;53.180;5.800;2022-12-20T03:16:14;8.40;99.90
55091;DHT22;40985;53.180;5.800;2022-12-20T03:18:39;8.40;99.90
55091;DHT22;40985;53.180;5.800;2022-12-20T03:21:05;8.40;99.90
55091;DHT22;40985;53.180;5.800;2022-12-20T03:23:31;8.30;99.90
55091;DHT22;40985;53.180;5.800;2022-12-20T03:25:57;8.30;99.90
55091;DHT22;40985;53.180;5.800;2022-12-20T03:28:22;8.30;99.90
55091;DHT22;40985;53.180;5.800;2022-12-20T03:30:48;8.30;99.90
55091;DHT22;40985;53.180;5.800;2022-12-20T03:33:14;8.30;99.90
55091;DHT22;40985;53.180;5.800;2022-12-20T03:35:40;8.30;99.90
55091;DHT22;40985;53.180;5.800;2022-12-20T03:38:05;8.40;99.90
55091;DHT22;40985;53.180;5.800;2022-12-20T03:40:32;8.30;99.90
55091;DHT22;40985;53.180;5.800;2022-12-20T03:42:58;8.30;99.90
55091;DHT22;40985;53.180;5.800;2022-12-20T03:45:23;8.30;99.90
55091;DHT22;40985;53.180;5.800;2022-12-20T03:47:49;8.30;99.90
55091;DHT22;40985;53.180;5.800;2022-12-20T03:50:15;8.30;99.90
55091;DHT22;40985;53.180;5.800;2022-12-20T03:52:40;8.30;99.90
55091;DHT22;40985;53.180;5.800;2022-12-20T03:55:07;8.30;99.90
55091;DHT22;40985;53.180;5.800;2022-12-20T03:57:34;8.20;99.90
55091;DHT22;40985;53.180;5.800;2022-12-20T04:00:00;8.30;99.90
55091;DHT22;40985;53.180;5.800;2022-12-20T04:02:25;8.30;99.90
55091;DHT22;40985;53.180;5.800;2022-12-20T04:04:51;8.30;99.90
55091;DHT22;40985;53.180;5.800;2022-12-20T04:07:17;8.30;99.90
55091;DHT22;40985;53.180;5.800;2022-12-20T04:09:43;8.30;99.90
55091;DHT22;40985;53.180;5.800;2022-12-20T04:12:08;8.30;99.90
55091;DHT22;40985;53.180;5.800;2022-12-20T04:14:34;8.30;99.90
55091;DHT22;40985;53.180;5.800;2022-12-20T04:17:02;8.30;99.90
55091;DHT22;40985;53.180;5.800;2022-12-20T04:19:27;8.40;99.90
55091;DHT22;40985;53.180;5.800;2022-12-20T04:21:53;8.40;99.90
55091;DHT22;40985;53.180;5.800;2022-12-20T04:24:20;8.40;99.90
55091;DHT22;40985;53.180;5.800;2022-12-20T04:26:46;8.40;99.90
55091;DHT22;40985;53.180;5.800;2022-12-20T04:29:13;8.40;99.90
55091;DHT22;40985;53.180;5.800;2022-12-20T04:31:39;8.50;99.90
55091;DHT22;40985;53.180;5.800;2022-12-20T04:34:05;8.50;99.90
55091;DHT22;40985;53.180;5.800;2022-12-20T04:36:31;8.40;99.90
55091;DHT22;40985;53.180;5.800;2022-12-20T04:38:57;8.50;99.90
55091;DHT22;40985;53.180;5.800;2022-12-20T04:41:22;8.50;99.90
55091;DHT22;40985;53.180;5.800;2022-12-20T04:43:53;8.50;99.90
55091;DHT22;40985;53.180;5.800;2022-12-20T04:46:19;8.50;99.90
55091;DHT22;40985;53.180;5.800;2022-12-20T04:48:45;8.50;99.90
55091;DHT22;40985;53.180;5.800;2022-12-20T04:51:11;8.60;99.90
55091;DHT22;40985;53.180;5.800;2022-12-20T04:53:36;8.50;99.90
55091;DHT22;40985;53.180;5.800;2022-12-20T04:56:16;8.60;99.90
55091;DHT22;40985;53.180;5.800;2022-12-20T04:58:43;8.50;99.90
55091;DHT22;40985;53.180;5.800;2022-12-20T05:01:09;8.60;99.90
55091;DHT22;40985;53.180;5.800;2022-12-20T05:03:35;8.60;99.90
55091;DHT22;40985;53.180;5.800;2022-12-20T05:06:00;8.60;99.90
55091;DHT22;40985;53.180;5.800;2022-12-20T05:08:26;8.60;99.90
55091;DHT22;40985;53.180;5.800;2022-12-20T05:10:52;8.70;99.90
55091;DHT22;40985;53.180;5.800;2022-12-20T05:13:17;8.60;99.90
55091;DHT22;40985;53.180;5.800;2022-12-20T05:15:43;8.70;99.90
55091;DHT22;40985;53.180;5.800;2022-12-20T05:18:09;8.70;99.90
55091;DHT22;40985;53.180;5.800;2022-12-20T05:20:35;8.70;99.90
55091;DHT22;40985;53.180;5.800;2022-12-20T05:23:01;8.70;99.90
55091;DHT22;40985;53.180;5.800;2022-12-20T05:25:47;8.70;99.90
55091;DHT22;40985;53.180;5.800;2022-12-20T05:28:32;8.70;99.90
55091;DHT22;40985;53.180;5.800;2022-12-20T05:30:59;8.80;99.90
55091;DHT22;40985;53.180;5.800;2022-12-20T05:33:25;8.80;99.90
55091;DHT22;40985;53.180;5.800;2022-12-20T05:35:51;8.80;99.90
55091;DHT22;40985;53.180;5.800;2022-12-20T05:38:17;8.80;99.90
55091;DHT22;40985;53.180;5.800;2022-12-20T05:40:43;8.80;99.90
55091;DHT22;40985;53.180;5.800;2022-12-20T05:43:08;8.80;99.90
55091;DHT22;40985;53.180;5.800;2022-12-20T05:45:34;8.80;99.90
55091;DHT22;40985;53.180;5.800;2022-12-20T05:48:00;8.90;99.90
55091;DHT22;40985;53.180;5.800;2022-12-20T05:50:26;8.90;99.90
55091;DHT22;40985;53.180;5.800;2022-12-20T05:52:52;8.90;99.90
55091;DHT22;40985;53.180;5.800;2022-12-20T05:55:17;9.00;99.90
55091;DHT22;40985;53.180;5.800;2022-12-20T05:57:43;8.90;99.90
55091;DHT22;40985;53.180;5.800;2022-12-20T06:00:09;8.90;99.90
55091;DHT22;40985;53.180;5.800;2022-12-20T06:02:35;8.90;99.90
55091;DHT22;40985;53.180;5.800;2022-12-20T06:05:01;8.90;99.90
55091;DHT22;40985;53.180;5.800;2022-12-20T06:07:27;9.00;99.90
55091;DHT22;40985;53.180;5.800;2022-12-20T06:09:56;9.00;99.90
55091;DHT22;40985;53.180;5.800;2022-12-20T06:12:22;9.00;99.90
55091;DHT22;40985;53.180;5.800;2022-12-20T06:14:48;9.00;99.90
55091;DHT22;40985;53.180;5.800;2022-12-20T06:17:14;9.10;99.90
55091;DHT22;40985;53.180;5.800;2022-12-20T06:19:40;9.10;99.90
55091;DHT22;40985;53.180;5.800;2022-12-20T06:22:07;9.20;99.90
55091;DHT22;40985;53.180;5.800;2022-12-20T06:24:34;9.20;99.90
55091;DHT22;40985;53.180;5.800;2022-12-20T06:27:00;9.20;99.90
55091;DHT22;40985;53.180;5.800;2022-12-20T06:29:25;9.20;99.90
55091;DHT22;40985;53.180;5.800;2022-12-20T06:31:51;9.20;99.90
55091;DHT22;40985;53.180;5.800;2022-12-20T06:34:17;9.20;99.90
55091;DHT22;40985;53.180;5.800;2022-12-20T06:36:43;9.20;99.90
55091;DHT22;40985;53.180;5.800;2022-12-20T06:39:09;9.20;99.90
55091;DHT22;40985;53.180;5.800;2022-12-20T06:41:35;9.20;99.90
55091;DHT22;40985;53.180;5.800;2022-12-20T06:44:01;9.10;99.90
55091;DHT22;40985;53.180;5.800;2022-12-20T06:46:27;9.10;99.90
55091;DHT22;40985;53.180;5.800;2022-12-20T06:48:55;9.10;99.90
55091;DHT22;40985;53.180;5.800;2022-12-20T06:51:21;9.10;99.90
55091;DHT22;40985;53.180;5.800;2022-12-20T06:53:46;9.10;99.90
55091;DHT22;40985;53.180;5.800;2022-12-20T06:56:12;9.10;99.90
55091;DHT22;40985;53.180;5.800;2022-12-20T06:58:38;9.20;99.90
55091;DHT22;40985;53.180;5.800;2022-12-20T07:01:04;9.10;99.90
55091;DHT22;40985;53.180;5.800;2022-12-20T07:03:29;9.10;99.90
55091;DHT22;40985;53.180;5.800;2022-12-20T07:05:55;9.10;99.90
55091;DHT22;40985;53.180;5.800;2022-12-20T07:08:22;9.10;99.90
55091;DHT22;40985;53.180;5.800;2022-12-20T07:10:47;9.10;99.90
55091;DHT22;40985;53.180;5.800;2022-12-20T07:13:13;9.10;99.90
55091;DHT22;40985;53.180;5.800;2022-12-20T07:15:39;9.10;99.90
55091;DHT22;40985;53.180;5.800;2022-12-20T07:18:04;9.10;99.90
55091;DHT22;40985;53.180;5.800;2022-12-20T07:20:31;9.10;99.90
55091;DHT22;40985;53.180;5.800;2022-12-20T07:22:57;9.10;99.90
55091;DHT22;40985;53.180;5.800;2022-12-20T07:25:23;9.10;99.90
55091;DHT22;40985;53.180;5.800;2022-12-20T07:27:50;9.10;99.90
55091;DHT22;40985;53.180;5.800;2022-12-20T07:30:17;9.10;99.90
55091;DHT22;40985;53.180;5.800;2022-12-20T07:32:43;9.00;99.90
55091;DHT22;40985;53.180;5.800;2022-12-20T07:35:10;9.00;99.90
55091;DHT22;40985;53.180;5.800;2022-12-20T07:37:36;8.90;99.90
55091;DHT22;40985;53.180;5.800;2022-12-20T07:40:02;9.00;99.90
55091;DHT22;40985;53.180;5.800;2022-12-20T07:42:28;9.00;99.90
55091;DHT22;40985;53.180;5.800;2022-12-20T07:44:54;8.90;99.90
55091;DHT22;40985;53.180;5.800;2022-12-20T07:47:19;8.90;99.90
55091;DHT22;40985;53.180;5.800;2022-12-20T07:49:45;8.80;99.90
55091;DHT22;40985;53.180;5.800;2022-12-20T07:52:13;8.90;99.90
55091;DHT22;40985;53.180;5.800;2022-12-20T07:54:58;8.90;99.90
55091;DHT22;40985;53.180;5.800;2022-12-20T07:57:36;8.90;99.90
55091;DHT22;40985;53.180;5.800;2022-12-20T08:00:04;8.90;99.90
55091;DHT22;40985;53.180;5.800;2022-12-20T08:02:38;8.90;99.90
55091;DHT22;40985;53.180;5.800;2022-12-20T08:05:07;8.90;99.90
55091;DHT22;40985;53.180;5.800;2022-12-20T08:07:35;8.90;99.90
55091;DHT22;40985;53.180;5.800;2022-12-20T08:10:04;8.90;99.90
55091;DHT22;40985;53.180;5.800;2022-12-20T08:12:30;8.90;99.90
55091;DHT22;40985;53.180;5.800;2022-12-20T08:14:57;8.90;99.90
55091;DHT22;40985;53.180;5.800;2022-12-20T08:17:23;8.90;99.90
55091;DHT22;40985;53.180;5.800;2022-12-20T08:19:48;8.90;99.90
55091;DHT22;40985;53.180;5.800;2022-12-20T08:22:17;8.90;99.90
55091;DHT22;40985;53.180;5.800;2022-12-20T08:24:44;8.90;99.90
55091;DHT22;40985;53.180;5.800;2022-12-20T08:27:10;8.90;99.90
55091;DHT22;40985;53.180;5.800;2022-12-20T08:29:35;9.00;99.90
55091;DHT22;40985;53.180;5.800;2022-12-20T08:32:01;9.00;99.90
55091;DHT22;40985;53.180;5.800;2022-12-20T08:34:27;8.90;99.90
55091;DHT22;40985;53.180;5.800;2022-12-20T08:36:52;9.00;99.90
55091;DHT22;40985;53.180;5.800;2022-12-20T08:39:18;9.00;99.90
55091;DHT22;40985;53.180;5.800;2022-12-20T08:41:44;9.00;99.90
55091;DHT22;40985;53.180;5.800;2022-12-20T08:44:10;9.10;99.90
55091;DHT22;40985;53.180;5.800;2022-12-20T08:46:36;9.10;99.90
55091;DHT22;40985;53.180;5.800;2022-12-20T08:49:05;9.20;99.90
55091;DHT22;40985;53.180;5.800;2022-12-20T08:51:31;9.20;99.90
55091;DHT22;40985;53.180;5.800;2022-12-20T08:53:57;9.20;99.90
55091;DHT22;40985;53.180;5.800;2022-12-20T08:56:23;9.20;99.90
55091;DHT22;40985;53.180;5.800;2022-12-20T08:58:48;9.20;99.90
55091;DHT22;40985;53.180;5.800;2022-12-20T09:01:17;9.20;99.90
55091;DHT22;40985;53.180;5.800;2022-12-20T09:03:43;9.30;99.90
55091;DHT22;40985;53.180;5.800;2022-12-20T09:06:18;9.30;99.90
55091;DHT22;40985;53.180;5.800;2022-12-20T09:08:44;9.30;99.90
55091;DHT22;40985;53.180;5.800;2022-12-20T09:11:13;9.40;99.90
55091;DHT22;40985;53.180;5.800;2022-12-20T09:13:40;9.40;99.90
55091;DHT22;40985;53.180;5.800;2022-12-20T09:16:07;9.40;99.90
55091;DHT22;40985;53.180;5.800;2022-12-20T09:18:33;9.40;99.90
55091;DHT22;40985;53.180;5.800;2022-12-20T09:21:03;9.40;99.90
55091;DHT22;40985;53.180;5.800;2022-12-20T09:23:30;9.40;99.90
55091;DHT22;40985;53.180;5.800;2022-12-20T09:26:04;9.50;99.90
55091;DHT22;40985;53.180;5.800;2022-12-20T09:28:30;9.50;99.90
55091;DHT22;40985;53.180;5.800;2022-12-20T09:31:00;9.50;99.90
55091;DHT22;40985;53.180;5.800;2022-12-20T09:33:27;9.50;99.90
55091;DHT22;40985;53.180;5.800;2022-12-20T09:35:53;9.60;99.90
55091;DHT22;40985;53.180;5.800;2022-12-20T09:38:19;9.60;99.90
55091;DHT22;40985;53.180;5.800;2022-12-20T09:40:53;9.60;99.90
55091;DHT22;40985;53.180;5.800;2022-12-20T09:43:20;9.60;99.90
55091;DHT22;40985;53.180;5.800;2022-12-20T09:45:49;9.70;99.90
55091;DHT22;40985;53.180;5.800;2022-12-20T09:48:23;9.70;99.90
55091;DHT22;40985;53.180;5.800;2022-12-20T09:56:44;9.70;99.90
55091;DHT22;40985;53.180;5.800;2022-12-20T09:59:14;9.70;99.90
55091;DHT22;40985;53.180;5.800;2022-12-20T10:01:48;9.70;99.90
55091;DHT22;40985;53.180;5.800;2022-12-20T10:07:05;9.70;99.90
55091;DHT22;40985;53.180;5.800;2022-12-20T10:15:35;9.60;99.90
55091;DHT22;40985;53.180;5.800;2022-12-20T10:23:45;9.60;99.90
55091;DHT22;40985;53.180;5.800;2022-12-20T10:26:22;9.70;99.90
55091;DHT22;40985;53.180;5.800;2022-12-20T10:28:48;9.60;99.90
55091;DHT22;40985;53.180;5.800;2022-12-20T10:31:16;9.60;99.90
55091;DHT22;40985;53.180;5.800;2022-12-20T10:33:43;9.60;99.90
55091;DHT22;40985;53.180;5.800;2022-12-20T10:36:28;9.60;99.90
55091;DHT22;40985;53.180;5.800;2022-12-20T10:38:57;9.60;99.90
55091;DHT22;40985;53.180;5.800;2022-12-20T10:41:27;9.60;99.90
55091;DHT22;40985;53.180;5.800;2022-12-20T10:44:03;9.60;99.90
55091;DHT22;40985;53.180;5.800;2022-12-20T10:46:40;9.60;99.90
55091;DHT22;40985;53.180;5.800;2022-12-20T10:49:33;9.60;99.90
55091;DHT22;40985;53.180;5.800;2022-12-20T10:52:11;9.70;99.90
55091;DHT22;40985;53.180;5.800;2022-12-20T10:54:41;9.60;99.90
55091;DHT22;40985;53.180;5.800;2022-12-20T10:57:27;9.60;99.90
55091;DHT22;40985;53.180;5.800;2022-12-20T10:59:58;9.70;99.90
55091;DHT22;40985;53.180;5.800;2022-12-20T11:02:27;9.60;99.90
55091;DHT22;40985;53.180;5.800;2022-12-20T11:05:20;9.70;99.90
55091;DHT22;40985;53.180;5.800;2022-12-20T11:07:56;9.60;99.90
55091;DHT22;40985;53.180;5.800;2022-12-20T11:10:28;9.60;99.90
55091;DHT22;40985;53.180;5.800;2022-12-20T11:13:01;9.50;99.90
55091;DHT22;40985;53.180;5.800;2022-12-20T11:15:29;9.60;99.90
55091;DHT22;40985;53.180;5.800;2022-12-20T11:18:09;9.50;99.90
55091;DHT22;40985;53.180;5.800;2022-12-20T11:23:42;9.50;99.90
55091;DHT22;40985;53.180;5.800;2022-12-20T11:34:34;9.40;99.90
55091;DHT22;40985;53.180;5.800;2022-12-20T11:37:40;9.30;99.90
55091;DHT22;40985;53.180;5.800;2022-12-20T11:51:23;9.30;99.90
55091;DHT22;40985;53.180;5.800;2022-12-20T11:54:04;9.30;99.90
55091;DHT22;40985;53.180;5.800;2022-12-20T11:56:37;9.30;99.90
55091;DHT22;40985;53.180;5.800;2022-12-20T11:59:21;9.30;99.90
55091;DHT22;40985;53.180;5.800;2022-12-20T12:04:29;9.20;99.90
55091;DHT22;40985;53.180;5.800;2022-12-20T12:07:05;9.20;99.90
55091;DHT22;40985;53.180;5.800;2022-12-20T12:12:28;9.30;99.90
55091;DHT22;40985;53.180;5.800;2022-12-20T12:15:04;9.30;99.90
55091;DHT22;40985;53.180;5.800;2022-12-20T12:17:46;9.20;99.90
55091;DHT22;40985;53.180;5.800;2022-12-20T12:23:09;9.20;99.90
55091;DHT22;40985;53.180;5.800;2022-12-20T12:25:35;9.30;99.90
55091;DHT22;40985;53.180;5.800;2022-12-20T12:28:02;9.30;99.90
55091;DHT22;40985;53.180;5.800;2022-12-20T12:30:38;9.30;99.90
55091;DHT22;40985;53.180;5.800;2022-12-20T12:33:11;9.30;99.90
55091;DHT22;40985;53.180;5.800;2022-12-20T12:35:59;9.30;99.90
55091;DHT22;40985;53.180;5.800;2022-12-20T12:43:46;9.20;99.90
55091;DHT22;40985;53.180;5.800;2022-12-20T12:46:33;9.30;99.90
55091;DHT22;40985;53.180;5.800;2022-12-20T12:49:11;9.20;99.90
55091;DHT22;40985;53.180;5.800;2022-12-20T12:51:41;9.20;99.90
55091;DHT22;40985;53.180;5.800;2022-12-20T12:54:28;9.20;99.90
55091;DHT22;40985;53.180;5.800;2022-12-20T12:57:02;9.20;99.90
55091;DHT22;40985;53.180;5.800;2022-12-20T13:04:30;9.10;99.90
55091;DHT22;40985;53.180;5.800;2022-12-20T13:12:58;9.10;99.90
55091;DHT22;40985;53.180;5.800;2022-12-20T13:20:36;9.10;99.90
55091;DHT22;40985;53.180;5.800;2022-12-20T13:33:42;9.10;99.90
55091;DHT22;40985;53.180;5.800;2022-12-20T13:43:50;9.20;99.90
55091;DHT22;40985;53.180;5.800;2022-12-20T13:49:19;9.20;99.90
55091;DHT22;40985;53.180;5.800;2022-12-20T13:51:47;9.20;99.90
55091;DHT22;40985;53.180;5.800;2022-12-20T13:54:18;9.20;99.90
55091;DHT22;40985;53.180;5.800;2022-12-20T13:56:46;9.30;99.90
55091;DHT22;40985;53.180;5.800;2022-12-20T13:59:16;9.30;99.90
55091;DHT22;40985;53.180;5.800;2022-12-20T14:01:55;9.30;99.90
55091;DHT22;40985;53.180;5.800;2022-12-20T14:04:27;9.40;99.90
55091;DHT22;40985;53.180;5.800;2022-12-20T14:07:03;9.30;99.90
55091;DHT22;40985;53.180;5.800;2022-12-20T14:09:35;9.30;99.90
55091;DHT22;40985;53.180;5.800;2022-12-20T14:14:37;9.30;99.90
55091;DHT22;40985;53.180;5.800;2022-12-20T14:19:41;9.30;99.90
55091;DHT22;40985;53.180;5.800;2022-12-20T14:22:09;9.30;99.90
55091;DHT22;40985;53.180;5.800;2022-12-20T14:24:42;9.20;99.90
55091;DHT22;40985;53.180;5.800;2022-12-20T14:27:11;9.20;99.90
55091;DHT22;40985;53.180;5.800;2022-12-20T14:29:38;9.20;99.90
55091;DHT22;40985;53.180;5.800;2022-12-20T14:32:05;9.20;99.90
55091;DHT22;40985;53.180;5.800;2022-12-20T14:34:32;9.20;99.90
55091;DHT22;40985;53.180;5.800;2022-12-20T14:37:31;9.20;99.90
55091;DHT22;40985;53.180;5.800;2022-12-20T14:42:35;9.10;99.90
55091;DHT22;40985;53.180;5.800;2022-12-20T14:48:00;9.10;99.90
55091;DHT22;40985;53.180;5.800;2022-12-20T14:50:35;9.00;99.90
55091;DHT22;40985;53.180;5.800;2022-12-20T14:53:03;9.00;99.90
55091;DHT22;40985;53.180;5.800;2022-12-20T14:55:35;9.00;99.90
55091;DHT22;40985;53.180;5.800;2022-12-20T14:58:05;9.00;99.90
55091;DHT22;40985;53.180;5.800;2022-12-20T15:00:58;9.00;99.90
55091;DHT22;40985;53.180;5.800;2022-12-20T15:03:24;9.00;99.90
55091;DHT22;40985;53.180;5.800;2022-12-20T15:05:55;8.90;99.90
55091;DHT22;40985;53.180;5.800;2022-12-20T15:08:22;8.90;99.90
55091;DHT22;40985;53.180;5.800;2022-12-20T15:13:16;8.90;99.90
55091;DHT22;40985;53.180;5.800;2022-12-20T15:15:43;8.80;99.90
55091;DHT22;40985;53.180;5.800;2022-12-20T15:18:17;8.80;99.90
55091;DHT22;40985;53.180;5.800;2022-12-20T15:20:45;8.80;99.90
55091;DHT22;40985;53.180;5.800;2022-12-20T15:23:18;8.70;99.90
55091;DHT22;40985;53.180;5.800;2022-12-20T15:25:44;8.80;99.90
55091;DHT22;40985;53.180;5.800;2022-12-20T15:28:21;8.70;99.90
55091;DHT22;40985;53.180;5.800;2022-12-20T15:30:48;8.70;99.90
55091;DHT22;40985;53.180;5.800;2022-12-20T15:33:23;8.60;99.90
55091;DHT22;40985;53.180;5.800;2022-12-20T15:35:51;8.60;99.90
55091;DHT22;40985;53.180;5.800;2022-12-20T15:38:19;8.60;99.90
55091;DHT22;40985;53.180;5.800;2022-12-20T15:40:47;8.60;99.90
55091;DHT22;40985;53.180;5.800;2022-12-20T15:43:17;8.60;99.90
55091;DHT22;40985;53.180;5.800;2022-12-20T15:45:47;8.60;99.90
55091;DHT22;40985;53.180;5.800;2022-12-20T15:48:16;8.60;99.90
55091;DHT22;40985;53.180;5.800;2022-12-20T15:50:52;8.60;99.90
55091;DHT22;40985;53.180;5.800;2022-12-20T15:53:23;8.50;99.90
55091;DHT22;40985;53.180;5.800;2022-12-20T15:55:50;8.60;99.90
55091;DHT22;40985;53.180;5.800;2022-12-20T15:58:16;8.50;99.90
55091;DHT22;40985;53.180;5.800;2022-12-20T16:00:42;8.50;99.90
55091;DHT22;40985;53.180;5.800;2022-12-20T16:03:19;8.40;99.90
55091;DHT22;40985;53.180;5.800;2022-12-20T16:05:49;8.40;99.90
55091;DHT22;40985;53.180;5.800;2022-12-20T16:08:17;8.50;99.90
55091;DHT22;40985;53.180;5.800;2022-12-20T16:10:45;8.50;99.90
55091;DHT22;40985;53.180;5.800;2022-12-20T16:13:21;8.50;99.90
55091;DHT22;40985;53.180;5.800;2022-12-20T16:15:47;8.50;99.90
55091;DHT22;40985;53.180;5.800;2022-12-20T16:18:13;8.40;99.90
55091;DHT22;40985;53.180;5.800;2022-12-20T16:20:38;8.40;99.90
55091;DHT22;40985;53.180;5.800;2022-12-20T16:23:07;8.40;99.90
55091;DHT22;40985;53.180;5.800;2022-12-20T16:25:36;8.30;99.90
55091;DHT22;40985;53.180;5.800;2022-12-20T16:28:02;8.40;99.90
55091;DHT22;40985;53.180;5.800;2022-12-20T16:30:28;8.40;99.90
55091;DHT22;40985;53.180;5.800;2022-12-20T16:32:54;8.30;99.90
55091;DHT22;40985;53.180;5.800;2022-12-20T16:35:29;8.30;99.90
55091;DHT22;40985;53.180;5.800;2022-12-20T16:37:56;8.30;99.90
55091;DHT22;40985;53.180;5.800;2022-12-20T16:40:27;8.30;99.90
55091;DHT22;40985;53.180;5.800;2022-12-20T16:42:55;8.20;99.90
55091;DHT22;40985;53.180;5.800;2022-12-20T16:45:27;8.30;99.90
55091;DHT22;40985;53.180;5.800;2022-12-20T16:47:54;8.20;99.90
55091;DHT22;40985;53.180;5.800;2022-12-20T16:50:21;8.20;99.90
55091;DHT22;40985;53.180;5.800;2022-12-20T16:52:47;8.20;99.90
55091;DHT22;40985;53.180;5.800;2022-12-20T16:55:21;8.20;99.90
55091;DHT22;40985;53.180;5.800;2022-12-20T16:57:47;8.20;99.90
55091;DHT22;40985;53.180;5.800;2022-12-20T17:00:18;8.20;99.90
55091;DHT22;40985;53.180;5.800;2022-12-20T17:02:44;8.20;99.90
55091;DHT22;40985;53.180;5.800;2022-12-20T17:05:33;8.20;99.90
55091;DHT22;40985;53.180;5.800;2022-12-20T17:08:00;8.20;99.90
55091;DHT22;40985;53.180;5.800;2022-12-20T17:10:25;8.20;99.90
55091;DHT22;40985;53.180;5.800;2022-12-20T17:12:51;8.10;99.90
55091;DHT22;40985;53.180;5.800;2022-12-20T17:15:23;8.10;99.90
55091;DHT22;40985;53.180;5.800;2022-12-20T17:17:50;8.10;99.90
55091;DHT22;40985;53.180;5.800;2022-12-20T17:20:18;8.10;99.90
55091;DHT22;40985;53.180;5.800;2022-12-20T17:22:47;8.10;99.90
55091;DHT22;40985;53.180;5.800;2022-12-20T17:27:43;8.00;99.90
55091;DHT22;40985;53.180;5.800;2022-12-20T17:30:09;8.00;99.90
55091;DHT22;40985;53.180;5.800;2022-12-20T17:32:34;8.00;99.90
55091;DHT22;40985;53.180;5.800;2022-12-20T17:35:00;8.00;99.90
55091;DHT22;40985;53.180;5.800;2022-12-20T17:37:26;8.00;99.90
55091;DHT22;40985;53.180;5.800;2022-12-20T17:39:52;8.00;99.90
55091;DHT22;40985;53.180;5.800;2022-12-20T17:42:18;8.00;99.90
55091;DHT22;40985;53.180;5.800;2022-12-20T17:44:43;8.00;99.90
55091;DHT22;40985;53.180;5.800;2022-12-20T17:47:10;8.00;99.90
55091;DHT22;40985;53.180;5.800;2022-12-20T17:49:36;8.00;99.90
55091;DHT22;40985;53.180;5.800;2022-12-20T17:52:02;8.00;99.90
55091;DHT22;40985;53.180;5.800;2022-12-20T17:54:28;8.00;99.90
55091;DHT22;40985;53.180;5.800;2022-12-20T17:56:54;8.00;99.90
55091;DHT22;40985;53.180;5.800;2022-12-20T17:59:22;8.00;99.90
55091;DHT22;40985;53.180;5.800;2022-12-20T18:01:49;8.00;99.90
55091;DHT22;40985;53.180;5.800;2022-12-20T18:04:15;7.90;99.90
55091;DHT22;40985;53.180;5.800;2022-12-20T18:06:43;7.90;99.90
55091;DHT22;40985;53.180;5.800;2022-12-20T18:11:38;7.90;99.90
55091;DHT22;40985;53.180;5.800;2022-12-20T18:14:04;7.90;99.90